sensor_id;sensor_type;location;lat;lon;timestamp;temperature;humidity
10030;DHT22;5055;52.054;8.524;2023-09-19T00:01:27;15.90;97.00
10030;DHT22;5055;52.054;8.524;2023-09-19T00:03:57;15.90;97.00
10030;DHT22;5055;52.054;8.524;2023-09-19T00:06:28;16.00;97.00
10030;DHT22;5055;52.054;8.524;2023-09-19T00:08:58;15.90;97.00
10030;DHT22;5055;52.054;8.524;2023-09-19T00:11:27;15.90;97.00
10030;DHT22;5055;52.054;8.524;2023-09-19T00:13:57;16.00;97.00
10030;DHT22;5055;52.054;8.524;2023-09-19T00:16:27;15.90;97.00
10030;DHT22;5055;52.054;8.524;2023-09-19T00:18:56;15.90;97.00
10030;DHT22;5055;52.054;8.524;2023-09-19T00:21:26;16.00;97.00
10030;DHT22;5055;52.054;8.524;2023-09-19T00:23:55;15.90;97.00
10030;DHT22;5055;52.054;8.524;2023-09-19T00:26:24;15.90;97.00
10030;DHT22;5055;52.054;8.524;2023-09-19T00:28:53;15.90;97.00
10030;DHT22;5055;52.054;8.524;2023-09-19T00:31:24;15.90;97.00
10030;DHT22;5055;52.054;8.524;2023-09-19T00:33:53;15.90;97.00
10030;DHT22;5055;52.054;8.524;2023-09-19T00:36:21;15.90;97.00
10030;DHT22;5055;52.054;8.524;2023-09-19T00:38:50;15.90;97.00
10030;DHT22;5055;52.054;8.524;2023-09-19T00:41:18;15.90;97.00
10030;DHT22;5055;52.054;8.524;2023-09-19T00:43:47;15.90;97.00
10030;DHT22;5055;52.054;8.524;2023-09-19T00:46:17;15.90;97.00
10030;DHT22;5055;52.054;8.524;2023-09-19T00:48:47;15.90;97.00
10030;DHT22;5055;52.054;8.524;2023-09-19T00:51:16;15.90;97.00
10030;DHT22;5055;52.054;8.524;2023-09-19T00:53:47;15.90;97.00
10030;DHT22;5055;52.054;8.524;2023-09-19T00:56:16;15.90;97.00
10030;DHT22;5055;52.054;8.524;2023-09-19T00:58:46;15.90;97.00
10030;DHT22;5055;52.054;8.524;2023-09-19T01:01:14;15.90;97.00
10030;DHT22;5055;52.054;8.524;2023-09-19T01:03:44;15.90;97.00
10030;DHT22;5055;52.054;8.524;2023-09-19T01:06:14;15.90;97.00
10030;DHT22;5055;52.054;8.524;2023-09-19T01:08:43;15.90;97.00
10030;DHT22;5055;52.054;8.524;2023-09-19T01:11:16;15.90;97.00
10030;DHT22;5055;52.054;8.524;2023-09-19T01:13:55;15.90;97.00
10030;DHT22;5055;52.054;8.524;2023-09-19T01:16:35;15.90;97.00
10030;DHT22;5055;52.054;8.524;2023-09-19T01:19:34;15.90;97.00
10030;DHT22;5055;52.054;8.524;2023-09-19T01:22:23;15.80;97.00
10030;DHT22;5055;52.054;8.524;2023-09-19T01:25:14;15.80;97.00
10030;DHT22;5055;52.054;8.524;2023-09-19T01:28:07;15.90;97.00
10030;DHT22;5055;52.054;8.524;2023-09-19T01:30:44;15.90;97.00
10030;DHT22;5055;52.054;8.524;2023-09-19T01:33:14;15.90;97.00
10030;DHT22;5055;52.054;8.524;2023-09-19T01:35:44;16.00;97.00
10030;DHT22;5055;52.054;8.524;2023-09-19T01:38:12;16.00;97.00
10030;DHT22;5055;52.054;8.524;2023-09-19T01:40:42;16.00;97.00
10030;DHT22;5055;52.054;8.524;2023-09-19T01:43:19;16.00;97.00
10030;DHT22;5055;52.054;8.524;2023-09-19T01:45:56;16.00;97.00
10030;DHT22;5055;52.054;8.524;2023-09-19T01:48:35;16.00;97.00
10030;DHT22;5055;52.054;8.524;2023-09-19T01:51:09;16.00;97.00
10030;DHT22;5055;52.054;8.524;2023-09-19T01:53:44;16.00;97.00
10030;DHT22;5055;52.054;8.524;2023-09-19T01:56:23;16.00;97.00
10030;DHT22;5055;52.054;8.524;2023-09-19T01:58:56;16.00;97.00
10030;DHT22;5055;52.054;8.524;2023-09-19T02:01:29;16.00;97.00
10030;DHT22;5055;52.054;8.524;2023-09-19T02:03:58;16.00;97.00
10030;DHT22;5055;52.054;8.524;2023-09-19T02:06:27;16.10;97.00
10030;DHT22;5055;52.054;8.524;2023-09-19T02:08:56;16.10;97.00
10030;DHT22;5055;52.054;8.524;2023-09-19T02:11:24;16.00;97.00
10030;DHT22;5055;52.054;8.524;2023-09-19T02:13:53;16.00;97.00
10030;DHT22;5055;52.054;8.524;2023-09-19T02:16:22;16.00;97.00
10030;DHT22;5055;52.054;8.524;2023-09-19T02:18:52;16.00;97.00
10030;DHT22;5055;52.054;8.524;2023-09-19T02:21:20;15.90;97.00
10030;DHT22;5055;52.054;8.524;2023-09-19T02:23:49;15.90;97.00
10030;DHT22;5055;52.054;8.524;2023-09-19T02:26:18;15.90;97.00
10030;DHT22;5055;52.054;8.524;2023-09-19T02:28:47;15.90;97.00
10030;DHT22;5055;52.054;8.524;2023-09-19T02:31:16;15.90;97.00
10030;DHT22;5055;52.054;8.524;2023-09-19T02:33:45;15.90;97.00
10030;DHT22;5055;52.054;8.524;2023-09-19T02:36:14;15.90;97.00
10030;DHT22;5055;52.054;8.524;2023-09-19T02:38:44;15.90;97.00
10030;DHT22;5055;52.054;8.524;2023-09-19T02:41:13;15.90;97.00
10030;DHT22;5055;52.054;8.524;2023-09-19T02:43:42;15.90;97.00
10030;DHT22;5055;52.054;8.524;2023-09-19T02:46:11;15.90;97.00
10030;DHT22;5055;52.054;8.524;2023-09-19T02:48:40;15.90;97.00
10030;DHT22;5055;52.054;8.524;2023-09-19T02:51:09;15.90;97.00
10030;DHT22;5055;52.054;8.524;2023-09-19T02:53:39;15.80;97.00
10030;DHT22;5055;52.054;8.524;2023-09-19T02:56:09;15.80;97.00
10030;DHT22;5055;52.054;8.524;2023-09-19T02:58:40;15.80;97.00
10030;DHT22;5055;52.054;8.524;2023-09-19T03:01:09;15.80;97.00
10030;DHT22;5055;52.054;8.524;2023-09-19T03:03:40;15.70;97.00
10030;DHT22;5055;52.054;8.524;2023-09-19T03:06:08;15.70;97.00
10030;DHT22;5055;52.054;8.524;2023-09-19T03:08:38;15.70;97.00
10030;DHT22;5055;52.054;8.524;2023-09-19T03:11:09;15.60;97.00
10030;DHT22;5055;52.054;8.524;2023-09-19T03:13:38;15.60;97.00
10030;DHT22;5055;52.054;8.524;2023-09-19T03:16:09;15.60;97.00
10030;DHT22;5055;52.054;8.524;2023-09-19T03:18:38;15.50;97.00
10030;DHT22;5055;52.054;8.524;2023-09-19T03:21:06;15.50;97.00
10030;DHT22;5055;52.054;8.524;2023-09-19T03:23:35;15.50;97.00
10030;DHT22;5055;52.054;8.524;2023-09-19T03:26:07;15.50;97.00
10030;DHT22;5055;52.054;8.524;2023-09-19T03:28:36;15.50;97.00
10030;DHT22;5055;52.054;8.524;2023-09-19T03:31:06;15.40;97.00
10030;DHT22;5055;52.054;8.524;2023-09-19T03:33:35;15.40;97.00
10030;DHT22;5055;52.054;8.524;2023-09-19T03:36:05;15.30;97.00
10030;DHT22;5055;52.054;8.524;2023-09-19T03:38:34;15.30;97.00
10030;DHT22;5055;52.054;8.524;2023-09-19T03:41:02;15.30;97.00
10030;DHT22;5055;52.054;8.524;2023-09-19T03:43:33;15.30;97.00
10030;DHT22;5055;52.054;8.524;2023-09-19T03:46:02;15.20;97.00
10030;DHT22;5055;52.054;8.524;2023-09-19T03:48:31;15.20;97.00
10030;DHT22;5055;52.054;8.524;2023-09-19T03:51:00;15.20;97.00
10030;DHT22;5055;52.054;8.524;2023-09-19T03:53:29;15.10;97.00
10030;DHT22;5055;52.054;8.524;2023-09-19T03:55:57;15.10;97.00
10030;DHT22;5055;52.054;8.524;2023-09-19T03:58:27;15.10;97.00
10030;DHT22;5055;52.054;8.524;2023-09-19T04:00:57;15.10;97.00
10030;DHT22;5055;52.054;8.524;2023-09-19T04:03:26;15.10;97.00
10030;DHT22;5055;52.054;8.524;2023-09-19T04:06:02;15.10;97.00
10030;DHT22;5055;52.054;8.524;2023-09-19T04:08:31;15.00;97.00
10030;DHT22;5055;52.054;8.524;2023-09-19T04:10:59;15.00;97.00
10030;DHT22;5055;52.054;8.524;2023-09-19T04:13:28;14.90;97.00
10030;DHT22;5055;52.054;8.524;2023-09-19T04:15:58;14.90;97.00
10030;DHT22;5055;52.054;8.524;2023-09-19T04:18:27;14.80;97.00
10030;DHT22;5055;52.054;8.524;2023-09-19T04:20:58;14.80;97.00
10030;DHT22;5055;52.054;8.524;2023-09-19T04:23:26;14.70;97.00
10030;DHT22;5055;52.054;8.524;2023-09-19T04:25:55;14.70;97.00
10030;DHT22;5055;52.054;8.524;2023-09-19T04:28:24;14.60;97.00
10030;DHT22;5055;52.054;8.524;2023-09-19T04:30:55;14.60;97.00
10030;DHT22;5055;52.054;8.524;2023-09-19T04:33:25;14.60;97.00
10030;DHT22;5055;52.054;8.524;2023-09-19T04:35:55;14.50;97.00
10030;DHT22;5055;52.054;8.524;2023-09-19T04:38:34;14.50;97.00
10030;DHT22;5055;52.054;8.524;2023-09-19T04:41:02;14.40;97.00
10030;DHT22;5055;52.054;8.524;2023-09-19T04:43:31;14.40;97.00
10030;DHT22;5055;52.054;8.524;2023-09-19T04:45:59;14.40;97.00
10030;DHT22;5055;52.054;8.524;2023-09-19T04:48:29;14.30;97.00
10030;DHT22;5055;52.054;8.524;2023-09-19T04:50:58;14.30;97.00
10030;DHT22;5055;52.054;8.524;2023-09-19T04:53:27;14.30;97.00
10030;DHT22;5055;52.054;8.524;2023-09-19T04:55:56;14.30;97.00
10030;DHT22;5055;52.054;8.524;2023-09-19T04:58:25;14.30;97.00
10030;DHT22;5055;52.054;8.524;2023-09-19T05:00:53;14.30;97.00
10030;DHT22;5055;52.054;8.524;2023-09-19T05:03:23;14.30;97.00
10030;DHT22;5055;52.054;8.524;2023-09-19T05:05:58;14.30;97.00
10030;DHT22;5055;52.054;8.524;2023-09-19T05:08:38;14.30;97.00
10030;DHT22;5055;52.054;8.524;2023-09-19T05:11:07;14.30;97.00
10030;DHT22;5055;52.054;8.524;2023-09-19T05:13:36;14.30;97.00
10030;DHT22;5055;52.054;8.524;2023-09-19T05:16:05;14.30;97.00
10030;DHT22;5055;52.054;8.524;2023-09-19T05:18:37;14.20;97.00
10030;DHT22;5055;52.054;8.524;2023-09-19T05:21:07;14.20;97.00
10030;DHT22;5055;52.054;8.524;2023-09-19T05:23:36;14.20;97.00
10030;DHT22;5055;52.054;8.524;2023-09-19T05:26:05;14.20;97.00
10030;DHT22;5055;52.054;8.524;2023-09-19T05:28:33;14.20;97.00
10030;DHT22;5055;52.054;8.524;2023-09-19T05:31:02;14.10;97.00
10030;DHT22;5055;52.054;8.524;2023-09-19T05:33:31;14.10;97.00
10030;DHT22;5055;52.054;8.524;2023-09-19T05:36:00;14.10;97.00
10030;DHT22;5055;52.054;8.524;2023-09-19T05:38:30;14.10;97.00
10030;DHT22;5055;52.054;8.524;2023-09-19T05:40:59;14.10;97.00
10030;DHT22;5055;52.054;8.524;2023-09-19T05:43:29;14.10;97.00
10030;DHT22;5055;52.054;8.524;2023-09-19T05:45:59;14.00;97.00
10030;DHT22;5055;52.054;8.524;2023-09-19T05:48:28;14.10;97.00
10030;DHT22;5055;52.054;8.524;2023-09-19T05:50:56;14.20;97.00
10030;DHT22;5055;52.054;8.524;2023-09-19T05:53:25;14.20;97.00
10030;DHT22;5055;52.054;8.524;2023-09-19T05:55:55;14.20;97.00
10030;DHT22;5055;52.054;8.524;2023-09-19T05:58:23;14.20;97.00
10030;DHT22;5055;52.054;8.524;2023-09-19T06:00:52;14.50;97.00
10030;DHT22;5055;52.054;8.524;2023-09-19T06:03:20;14.80;97.00
10030;DHT22;5055;52.054;8.524;2023-09-19T06:05:49;15.10;97.00
10030;DHT22;5055;52.054;8.524;2023-09-19T06:08:18;15.20;97.00
10030;DHT22;5055;52.054;8.524;2023-09-19T06:10:46;15.40;97.00
10030;DHT22;5055;52.054;8.524;2023-09-19T06:13:20;15.50;97.00
10030;DHT22;5055;52.054;8.524;2023-09-19T06:15:49;15.60;97.00
10030;DHT22;5055;52.054;8.524;2023-09-19T06:18:18;15.70;97.00
10030;DHT22;5055;52.054;8.524;2023-09-19T06:20:47;15.70;97.00
10030;DHT22;5055;52.054;8.524;2023-09-19T06:23:21;15.90;97.00
10030;DHT22;5055;52.054;8.524;2023-09-19T06:25:55;16.10;97.00
10030;DHT22;5055;52.054;8.524;2023-09-19T06:28:27;16.30;97.00
10030;DHT22;5055;52.054;8.524;2023-09-19T06:30:55;16.70;97.00
10030;DHT22;5055;52.054;8.524;2023-09-19T06:33:24;16.70;97.00
10030;DHT22;5055;52.054;8.524;2023-09-19T06:35:52;16.80;97.00
10030;DHT22;5055;52.054;8.524;2023-09-19T06:38:26;17.00;97.00
10030;DHT22;5055;52.054;8.524;2023-09-19T06:40:55;17.30;97.00
10030;DHT22;5055;52.054;8.524;2023-09-19T06:43:25;17.30;97.00
10030;DHT22;5055;52.054;8.524;2023-09-19T06:45:54;17.60;97.00
10030;DHT22;5055;52.054;8.524;2023-09-19T06:48:23;17.30;97.00
10030;DHT22;5055;52.054;8.524;2023-09-19T06:50:53;17.30;97.00
10030;DHT22;5055;52.054;8.524;2023-09-19T06:53:23;17.20;97.00
10030;DHT22;5055;52.054;8.524;2023-09-19T06:55:51;16.80;97.00
10030;DHT22;5055;52.054;8.524;2023-09-19T06:58:20;16.50;97.00
10030;DHT22;5055;52.054;8.524;2023-09-19T07:00:51;16.50;97.00
10030;DHT22;5055;52.054;8.524;2023-09-19T07:03:19;16.20;97.00
10030;DHT22;5055;52.054;8.524;2023-09-19T07:05:50;16.10;97.00
10030;DHT22;5055;52.054;8.524;2023-09-19T07:08:19;15.90;97.00
10030;DHT22;5055;52.054;8.524;2023-09-19T07:10:48;15.90;97.00
10030;DHT22;5055;52.054;8.524;2023-09-19T07:13:17;15.70;97.00
10030;DHT22;5055;52.054;8.524;2023-09-19T07:15:45;15.60;97.00
10030;DHT22;5055;52.054;8.524;2023-09-19T07:18:19;15.60;97.00
10030;DHT22;5055;52.054;8.524;2023-09-19T07:20:47;15.50;97.00
10030;DHT22;5055;52.054;8.524;2023-09-19T07:23:19;15.50;97.00
10030;DHT22;5055;52.054;8.524;2023-09-19T07:25:49;15.50;97.00
10030;DHT22;5055;52.054;8.524;2023-09-19T07:28:18;15.50;97.00
10030;DHT22;5055;52.054;8.524;2023-09-19T07:30:46;15.60;97.00
10030;DHT22;5055;52.054;8.524;2023-09-19T07:33:14;15.70;97.00
10030;DHT22;5055;52.054;8.524;2023-09-19T07:35:47;15.90;97.00
10030;DHT22;5055;52.054;8.524;2023-09-19T07:38:15;16.00;97.00
10030;DHT22;5055;52.054;8.524;2023-09-19T07:40:44;16.10;97.00
10030;DHT22;5055;52.054;8.524;2023-09-19T07:43:13;16.30;97.00
10030;DHT22;5055;52.054;8.524;2023-09-19T07:45:42;16.60;97.00
10030;DHT22;5055;52.054;8.524;2023-09-19T07:48:10;16.90;97.00
10030;DHT22;5055;52.054;8.524;2023-09-19T07:50:41;17.10;97.00
10030;DHT22;5055;52.054;8.524;2023-09-19T07:53:13;17.20;97.00
10030;DHT22;5055;52.054;8.524;2023-09-19T07:55:44;17.20;97.00
10030;DHT22;5055;52.054;8.524;2023-09-19T07:58:15;17.20;97.00
10030;DHT22;5055;52.054;8.524;2023-09-19T08:00:44;17.00;97.00
10030;DHT22;5055;52.054;8.524;2023-09-19T08:03:13;17.00;97.00
10030;DHT22;5055;52.054;8.524;2023-09-19T08:05:44;17.00;97.00
10030;DHT22;5055;52.054;8.524;2023-09-19T08:08:14;16.90;97.00
10030;DHT22;5055;52.054;8.524;2023-09-19T08:10:43;16.90;97.00
10030;DHT22;5055;52.054;8.524;2023-09-19T08:13:14;16.80;97.00
10030;DHT22;5055;52.054;8.524;2023-09-19T08:15:44;16.70;97.00
10030;DHT22;5055;52.054;8.524;2023-09-19T08:18:13;16.80;97.00
10030;DHT22;5055;52.054;8.524;2023-09-19T08:20:42;16.80;97.00
10030;DHT22;5055;52.054;8.524;2023-09-19T08:23:14;16.90;97.00
10030;DHT22;5055;52.054;8.524;2023-09-19T08:25:47;17.00;97.00
10030;DHT22;5055;52.054;8.524;2023-09-19T08:28:16;17.00;97.00
10030;DHT22;5055;52.054;8.524;2023-09-19T08:30:47;16.90;97.00
10030;DHT22;5055;52.054;8.524;2023-09-19T08:33:16;17.10;97.00
10030;DHT22;5055;52.054;8.524;2023-09-19T08:35:45;17.30;97.00
10030;DHT22;5055;52.054;8.524;2023-09-19T08:38:15;17.40;97.00
10030;DHT22;5055;52.054;8.524;2023-09-19T08:40:44;17.40;97.00
10030;DHT22;5055;52.054;8.524;2023-09-19T08:43:12;17.40;97.00
10030;DHT22;5055;52.054;8.524;2023-09-19T08:45:40;17.50;97.00
10030;DHT22;5055;52.054;8.524;2023-09-19T08:48:28;17.60;97.00
10030;DHT22;5055;52.054;8.524;2023-09-19T08:51:02;17.60;97.00
10030;DHT22;5055;52.054;8.524;2023-09-19T08:53:40;17.50;97.00
10030;DHT22;5055;52.054;8.524;2023-09-19T08:56:10;17.40;97.00
10030;DHT22;5055;52.054;8.524;2023-09-19T08:58:45;17.40;97.00
10030;DHT22;5055;52.054;8.524;2023-09-19T09:01:15;17.40;97.00
10030;DHT22;5055;52.054;8.524;2023-09-19T09:03:46;17.50;97.00
10030;DHT22;5055;52.054;8.524;2023-09-19T09:06:16;17.60;97.00
10030;DHT22;5055;52.054;8.524;2023-09-19T09:08:47;17.70;97.00
10030;DHT22;5055;52.054;8.524;2023-09-19T09:11:19;17.70;97.00
10030;DHT22;5055;52.054;8.524;2023-09-19T09:13:48;17.80;97.00
10030;DHT22;5055;52.054;8.524;2023-09-19T09:16:16;17.90;97.00
10030;DHT22;5055;52.054;8.524;2023-09-19T09:18:47;18.00;97.00
10030;DHT22;5055;52.054;8.524;2023-09-19T09:21:20;18.10;97.00
10030;DHT22;5055;52.054;8.524;2023-09-19T09:23:53;17.90;97.00
10030;DHT22;5055;52.054;8.524;2023-09-19T09:26:40;18.10;97.00
10030;DHT22;5055;52.054;8.524;2023-09-19T09:29:10;18.10;97.00
10030;DHT22;5055;52.054;8.524;2023-09-19T09:31:38;17.90;97.00
10030;DHT22;5055;52.054;8.524;2023-09-19T09:34:10;17.70;97.00
10030;DHT22;5055;52.054;8.524;2023-09-19T09:36:41;18.00;97.00
10030;DHT22;5055;52.054;8.524;2023-09-19T09:39:11;18.10;97.00
10030;DHT22;5055;52.054;8.524;2023-09-19T09:41:52;18.20;97.00
10030;DHT22;5055;52.054;8.524;2023-09-19T09:44:20;18.10;97.00
10030;DHT22;5055;52.054;8.524;2023-09-19T09:46:49;18.10;97.00
10030;DHT22;5055;52.054;8.524;2023-09-19T09:49:48;18.10;97.00
10030;DHT22;5055;52.054;8.524;2023-09-19T09:52:21;18.30;97.00
10030;DHT22;5055;52.054;8.524;2023-09-19T09:55:03;18.60;97.00
10030;DHT22;5055;52.054;8.524;2023-09-19T09:57:33;18.90;97.00
10030;DHT22;5055;52.054;8.524;2023-09-19T10:00:03;19.00;97.00
10030;DHT22;5055;52.054;8.524;2023-09-19T10:02:47;19.00;97.00
10030;DHT22;5055;52.054;8.524;2023-09-19T10:05:16;19.00;97.00
10030;DHT22;5055;52.054;8.524;2023-09-19T10:08:10;19.20;97.00
10030;DHT22;5055;52.054;8.524;2023-09-19T10:10:41;19.50;97.00
10030;DHT22;5055;52.054;8.524;2023-09-19T10:13:22;19.60;97.00
10030;DHT22;5055;52.054;8.524;2023-09-19T10:15:58;19.70;97.00
10030;DHT22;5055;52.054;8.524;2023-09-19T10:18:33;19.70;97.00
10030;DHT22;5055;52.054;8.524;2023-09-19T10:21:08;19.90;97.00
10030;DHT22;5055;52.054;8.524;2023-09-19T10:23:38;19.50;97.00
10030;DHT22;5055;52.054;8.524;2023-09-19T10:26:11;19.50;97.00
10030;DHT22;5055;52.054;8.524;2023-09-19T10:28:46;19.60;97.00
10030;DHT22;5055;52.054;8.524;2023-09-19T10:31:19;19.60;97.00
10030;DHT22;5055;52.054;8.524;2023-09-19T10:33:49;19.40;97.00
10030;DHT22;5055;52.054;8.524;2023-09-19T10:36:18;19.40;97.00
10030;DHT22;5055;52.054;8.524;2023-09-19T10:38:50;19.40;97.00
10030;DHT22;5055;52.054;8.524;2023-09-19T10:41:23;19.30;97.00
10030;DHT22;5055;52.054;8.524;2023-09-19T10:43:52;19.20;97.00
10030;DHT22;5055;52.054;8.524;2023-09-19T10:46:22;19.20;97.00
10030;DHT22;5055;52.054;8.524;2023-09-19T10:48:52;19.20;97.00
10030;DHT22;5055;52.054;8.524;2023-09-19T10:51:25;19.10;97.00
10030;DHT22;5055;52.054;8.524;2023-09-19T10:54:04;18.90;97.00
10030;DHT22;5055;52.054;8.524;2023-09-19T10:56:36;18.60;97.00
10030;DHT22;5055;52.054;8.524;2023-09-19T10:59:09;18.50;97.00
10030;DHT22;5055;52.054;8.524;2023-09-19T11:01:43;18.70;97.00
10030;DHT22;5055;52.054;8.524;2023-09-19T11:04:26;18.90;97.00
10030;DHT22;5055;52.054;8.524;2023-09-19T11:07:03;19.20;97.00
10030;DHT22;5055;52.054;8.524;2023-09-19T11:09:48;19.30;97.00
10030;DHT22;5055;52.054;8.524;2023-09-19T11:12:49;19.40;97.00
10030;DHT22;5055;52.054;8.524;2023-09-19T11:18:53;20.10;97.00
10030;DHT22;5055;52.054;8.524;2023-09-19T11:21:52;20.10;97.00
10030;DHT22;5055;52.054;8.524;2023-09-19T11:24:30;20.00;97.00
10030;DHT22;5055;52.054;8.524;2023-09-19T11:27:13;20.40;97.00
10030;DHT22;5055;52.054;8.524;2023-09-19T11:29:46;20.50;97.00
10030;DHT22;5055;52.054;8.524;2023-09-19T11:32:16;20.80;97.00
10030;DHT22;5055;52.054;8.524;2023-09-19T11:34:47;21.10;97.00
10030;DHT22;5055;52.054;8.524;2023-09-19T11:40:34;21.90;97.00
10030;DHT22;5055;52.054;8.524;2023-09-19T11:43:33;21.20;97.00
10030;DHT22;5055;52.054;8.524;2023-09-19T11:46:09;21.40;97.00
10030;DHT22;5055;52.054;8.524;2023-09-19T11:48:41;21.60;97.00
10030;DHT22;5055;52.054;8.524;2023-09-19T11:51:16;21.70;97.00
10030;DHT22;5055;52.054;8.524;2023-09-19T11:53:50;21.30;97.00
10030;DHT22;5055;52.054;8.524;2023-09-19T11:56:20;20.80;97.00
10030;DHT22;5055;52.054;8.524;2023-09-19T11:58:50;20.60;97.00
10030;DHT22;5055;52.054;8.524;2023-09-19T12:01:24;20.30;97.00
10030;DHT22;5055;52.054;8.524;2023-09-19T12:03:57;20.60;97.00
10030;DHT22;5055;52.054;8.524;2023-09-19T12:06:27;20.60;97.00
10030;DHT22;5055;52.054;8.524;2023-09-19T12:08:59;20.40;97.00
10030;DHT22;5055;52.054;8.524;2023-09-19T12:11:41;20.40;97.00
10030;DHT22;5055;52.054;8.524;2023-09-19T12:14:11;20.50;97.00
10030;DHT22;5055;52.054;8.524;2023-09-19T12:16:54;20.40;97.00
10030;DHT22;5055;52.054;8.524;2023-09-19T12:19:50;20.30;97.00
10030;DHT22;5055;52.054;8.524;2023-09-19T12:22:20;20.30;97.00
10030;DHT22;5055;52.054;8.524;2023-09-19T12:24:49;20.20;97.00
10030;DHT22;5055;52.054;8.524;2023-09-19T12:27:18;20.40;97.00
10030;DHT22;5055;52.054;8.524;2023-09-19T12:29:47;20.40;97.00
10030;DHT22;5055;52.054;8.524;2023-09-19T12:32:17;20.60;97.00
10030;DHT22;5055;52.054;8.524;2023-09-19T12:34:51;20.90;97.00
10030;DHT22;5055;52.054;8.524;2023-09-19T12:37:22;21.00;97.00
10030;DHT22;5055;52.054;8.524;2023-09-19T12:40:05;20.90;97.00
10030;DHT22;5055;52.054;8.524;2023-09-19T12:42:43;21.30;97.00
10030;DHT22;5055;52.054;8.524;2023-09-19T12:45:13;21.70;97.00
10030;DHT22;5055;52.054;8.524;2023-09-19T12:53:40;21.80;97.00
10030;DHT22;5055;52.054;8.524;2023-09-19T12:56:12;21.90;97.00
10030;DHT22;5055;52.054;8.524;2023-09-19T12:58:54;21.90;97.00
10030;DHT22;5055;52.054;8.524;2023-09-19T13:01:24;21.70;97.00
10030;DHT22;5055;52.054;8.524;2023-09-19T13:04:12;22.00;97.00
10030;DHT22;5055;52.054;8.524;2023-09-19T13:06:42;21.90;97.00
10030;DHT22;5055;52.054;8.524;2023-09-19T13:09:13;22.30;97.00
10030;DHT22;5055;52.054;8.524;2023-09-19T13:11:42;22.70;97.00
10030;DHT22;5055;52.054;8.524;2023-09-19T13:14:16;22.60;97.00
10030;DHT22;5055;52.054;8.524;2023-09-19T13:16:56;22.90;97.00
10030;DHT22;5055;52.054;8.524;2023-09-19T13:19:39;23.10;97.00
10030;DHT22;5055;52.054;8.524;2023-09-19T13:22:36;22.80;97.00
10030;DHT22;5055;52.054;8.524;2023-09-19T13:25:08;23.10;97.00
10030;DHT22;5055;52.054;8.524;2023-09-19T13:27:42;23.10;97.00
10030;DHT22;5055;52.054;8.524;2023-09-19T13:30:12;23.10;97.00
10030;DHT22;5055;52.054;8.524;2023-09-19T13:32:41;23.10;97.00
10030;DHT22;5055;52.054;8.524;2023-09-19T13:35:11;23.10;97.00
10030;DHT22;5055;52.054;8.524;2023-09-19T13:37:40;23.40;97.00
10030;DHT22;5055;52.054;8.524;2023-09-19T13:40:13;23.50;97.00
10030;DHT22;5055;52.054;8.524;2023-09-19T13:42:42;23.50;97.00
10030;DHT22;5055;52.054;8.524;2023-09-19T13:45:11;23.50;97.00
10030;DHT22;5055;52.054;8.524;2023-09-19T13:47:43;23.40;97.00
10030;DHT22;5055;52.054;8.524;2023-09-19T13:50:12;23.00;97.00
10030;DHT22;5055;52.054;8.524;2023-09-19T13:52:41;22.90;97.00
10030;DHT22;5055;52.054;8.524;2023-09-19T13:55:11;22.50;97.00
10030;DHT22;5055;52.054;8.524;2023-09-19T13:57:47;22.70;97.00
10030;DHT22;5055;52.054;8.524;2023-09-19T14:00:17;22.70;97.00
10030;DHT22;5055;52.054;8.524;2023-09-19T14:02:46;22.90;97.00
10030;DHT22;5055;52.054;8.524;2023-09-19T14:05:16;22.90;97.00
10030;DHT22;5055;52.054;8.524;2023-09-19T14:07:46;22.80;97.00
10030;DHT22;5055;52.054;8.524;2023-09-19T14:10:17;22.60;97.00
10030;DHT22;5055;52.054;8.524;2023-09-19T14:12:46;22.60;97.00
10030;DHT22;5055;52.054;8.524;2023-09-19T14:15:15;23.10;97.00
10030;DHT22;5055;52.054;8.524;2023-09-19T14:17:44;23.50;97.00
10030;DHT22;5055;52.054;8.524;2023-09-19T14:20:13;23.80;97.00
10030;DHT22;5055;52.054;8.524;2023-09-19T14:22:43;23.60;97.00
10030;DHT22;5055;52.054;8.524;2023-09-19T14:25:12;23.70;97.00
10030;DHT22;5055;52.054;8.524;2023-09-19T14:27:42;24.30;97.00
10030;DHT22;5055;52.054;8.524;2023-09-19T14:30:12;24.10;97.00
10030;DHT22;5055;52.054;8.524;2023-09-19T14:32:41;23.80;97.00
10030;DHT22;5055;52.054;8.524;2023-09-19T14:35:10;24.10;97.00
10030;DHT22;5055;52.054;8.524;2023-09-19T14:37:41;24.10;97.00
10030;DHT22;5055;52.054;8.524;2023-09-19T14:40:10;23.90;97.00
10030;DHT22;5055;52.054;8.524;2023-09-19T14:42:44;23.90;97.00
10030;DHT22;5055;52.054;8.524;2023-09-19T14:45:16;23.60;97.00
10030;DHT22;5055;52.054;8.524;2023-09-19T14:47:46;23.10;97.00
10030;DHT22;5055;52.054;8.524;2023-09-19T14:50:16;23.30;97.00
10030;DHT22;5055;52.054;8.524;2023-09-19T14:52:44;23.60;97.00
10030;DHT22;5055;52.054;8.524;2023-09-19T14:55:13;23.80;97.00
10030;DHT22;5055;52.054;8.524;2023-09-19T14:57:44;23.60;97.00
10030;DHT22;5055;52.054;8.524;2023-09-19T15:00:18;23.20;97.00
10030;DHT22;5055;52.054;8.524;2023-09-19T15:02:48;22.50;97.00
10030;DHT22;5055;52.054;8.524;2023-09-19T15:05:17;22.10;97.00
10030;DHT22;5055;52.054;8.524;2023-09-19T15:07:47;21.50;97.00
10030;DHT22;5055;52.054;8.524;2023-09-19T15:10:15;21.20;97.00
10030;DHT22;5055;52.054;8.524;2023-09-19T15:12:47;21.00;97.00
10030;DHT22;5055;52.054;8.524;2023-09-19T15:15:15;20.80;97.00
10030;DHT22;5055;52.054;8.524;2023-09-19T15:17:44;20.70;97.00
10030;DHT22;5055;52.054;8.524;2023-09-19T15:20:14;20.60;97.00
10030;DHT22;5055;52.054;8.524;2023-09-19T15:22:45;20.50;97.00
10030;DHT22;5055;52.054;8.524;2023-09-19T15:25:15;20.50;97.00
10030;DHT22;5055;52.054;8.524;2023-09-19T15:27:44;20.50;97.00
10030;DHT22;5055;52.054;8.524;2023-09-19T15:30:14;20.50;97.00
10030;DHT22;5055;52.054;8.524;2023-09-19T15:32:43;20.50;97.00
10030;DHT22;5055;52.054;8.524;2023-09-19T15:35:12;20.50;97.00
10030;DHT22;5055;52.054;8.524;2023-09-19T15:37:44;20.40;97.00
10030;DHT22;5055;52.054;8.524;2023-09-19T15:40:14;20.40;97.00
10030;DHT22;5055;52.054;8.524;2023-09-19T15:42:42;20.30;97.00
10030;DHT22;5055;52.054;8.524;2023-09-19T15:45:11;20.30;97.00
10030;DHT22;5055;52.054;8.524;2023-09-19T15:47:41;20.20;97.00
10030;DHT22;5055;52.054;8.524;2023-09-19T15:50:10;20.20;97.00
10030;DHT22;5055;52.054;8.524;2023-09-19T15:52:41;20.20;97.00
10030;DHT22;5055;52.054;8.524;2023-09-19T15:55:09;20.20;97.00
10030;DHT22;5055;52.054;8.524;2023-09-19T15:57:38;20.30;97.00
10030;DHT22;5055;52.054;8.524;2023-09-19T16:00:08;20.30;97.00
10030;DHT22;5055;52.054;8.524;2023-09-19T16:02:42;20.30;97.00
10030;DHT22;5055;52.054;8.524;2023-09-19T16:05:14;20.20;97.00
10030;DHT22;5055;52.054;8.524;2023-09-19T16:07:43;20.10;97.00
10030;DHT22;5055;52.054;8.524;2023-09-19T16:10:12;20.00;97.00
10030;DHT22;5055;52.054;8.524;2023-09-19T16:12:43;19.80;97.00
10030;DHT22;5055;52.054;8.524;2023-09-19T16:15:11;19.80;97.00
10030;DHT22;5055;52.054;8.524;2023-09-19T16:17:43;19.80;97.00
10030;DHT22;5055;52.054;8.524;2023-09-19T16:20:11;19.80;97.00
10030;DHT22;5055;52.054;8.524;2023-09-19T16:22:40;20.00;97.00
10030;DHT22;5055;52.054;8.524;2023-09-19T16:25:09;20.00;97.00